Hawk Junction, Canada
Current Conditions -  °F | °C
As of 1:00 PM on Monday 24 Nov 2014 (Local Time) from CYXZ Reporting Station
Light Snow Light Snow  
Wind Chill: 20°   Ceiling: 800
Heat Index: 30°   Visibility: 4mi
Dew Point: 28°   Wind: 14mph
Humidity: 93%   Direction: 360°N
Pressure: 28.98"   Gusts: 24mph
Location:  48.09°N, 84.56°W
Report Text: CYXZ 241800Z 36012G21KT 320V030 4SM -SN OVC008 M01/M02 A2898 RMK ST8 SLP823
Loading
Personal Weather Stations






























Interactive Weather Map New forecast layout! Learn more

10-Day Weather Forecast

Advertisements
Track Severe Weather on mobile